Time;durP1;ratioP1;P1;durP2;ratioP2;P2;SDS_P1;SDS_P2;PMS_P1;PMS_P2;Temp;Humidity;BMP_temperature;BMP_pressure;BME280_temperature;BME280_humidity;BME280_pressure;Samples;Min_cycle;Max_cycle;Signal;HPM_P1;HPM_P2
2022/08/15 00:00:46;;;;;;;8.95;6.15;;;;;;;;;;4992575;28;20034;-61
2022/08/15 00:03:27;;;;;;;10.90;6.68;;;;;;;;;;4997192;28;20076;-61
2022/08/15 00:05:54;;;;;;;9.70;6.47;;;;;;;;;;5005677;28;20080;-61
2022/08/15 00:08:20;;;;;;;9.77;6.60;;;;;;;;;;4999177;28;20073;-61
2022/08/15 00:10:46;;;;;;;9.52;6.30;;;;;;;;;;5004790;28;20041;-61
2022/08/15 00:13:21;;;;;;;8.90;6.38;;;;;;;;;;5002508;28;20030;-61
2022/08/15 00:15:48;;;;;;;8.20;6.80;;;;;;;;;;5007074;28;20143;-61
2022/08/15 00:18:14;;;;;;;8.60;6.50;;;;;;;;;;4992344;28;20057;-61
2022/08/15 00:20:40;;;;;;;8.93;6.43;;;;;;;;;;4990470;28;20084;-63
2022/08/15 00:23:09;;;;;;;7.65;6.30;;;;;;;;;;4998781;28;20692;-61
2022/08/15 00:25:37;;;;;;;10.30;6.75;;;;;;;;;;5005346;28;20038;-61
2022/08/15 00:28:05;;;;;;;8.13;6.43;;;;;;;;;;5000441;28;20034;-61
2022/08/15 00:30:31;;;;;;;8.43;6.57;;;;;;;;;;5009506;28;20107;-61
2022/08/15 00:32:58;;;;;;;9.32;6.45;;;;;;;;;;5008984;28;20048;-61
2022/08/15 00:35:37;;;;;;;11.98;6.60;;;;;;;;;;4999361;28;20029;-61
2022/08/15 00:38:15;;;;;;;7.68;6.57;;;;;;;;;;4990458;28;20022;-61
2022/08/15 00:43:34;;;;;;;7.97;6.60;;;;;;;;;;4998376;28;20041;-61
2022/08/15 00:46:02;;;;;;;8.68;6.68;;;;;;;;;;4999427;28;20038;-61
2022/08/15 00:48:43;;;;;;;8.02;6.68;;;;;;;;;;4998443;28;20117;-61
2022/08/15 00:51:11;;;;;;;;;;;;;;;;;;4992671;28;20041;-60
2022/08/15 00:53:37;;;;;;;8.77;6.57;;;;;;;;;;4990886;28;19917;-60
2022/08/15 00:56:07;;;;;;;9.93;6.93;;;;;;;;;;4998639;28;20034;-61
2022/08/15 00:58:33;;;;;;;9.13;6.87;;;;;;;;;;5011285;28;20525;-61
2022/08/15 01:00:59;;;;;;;8.23;6.55;;;;;;;;;;4994884;28;20101;-61
2022/08/15 01:03:29;;;;;;;8.93;6.72;;;;;;;;;;5004705;28;20037;-61
2022/08/15 01:05:59;;;;;;;8.77;6.90;;;;;;;;;;5003231;28;20416;-60
2022/08/15 01:08:31;;;;;;;8.52;7.13;;;;;;;;;;5009534;28;20061;-61
2022/08/15 01:11:01;;;;;;;7.57;6.45;;;;;;;;;;5008126;28;20170;-62
2022/08/15 01:13:26;;;;;;;8.18;6.63;;;;;;;;;;4999564;28;20041;-61
2022/08/15 01:15:52;;;;;;;9.15;6.82;;;;;;;;;;5008497;28;20121;-61
2022/08/15 01:18:18;;;;;;;7.90;6.97;;;;;;;;;;5003762;28;20108;-61
2022/08/15 01:20:44;;;;;;;9.43;6.78;;;;;;;;;;5001264;28;20068;-63
2022/08/15 01:23:41;;;;;;;9.65;7.15;;;;;;;;;;4992471;28;20031;-61
2022/08/15 01:26:08;;;;;;;9.93;7.03;;;;;;;;;;4993929;28;20089;-61
2022/08/15 01:28:38;;;;;;;9.95;6.90;;;;;;;;;;5009388;28;20270;-60
2022/08/15 01:31:10;;;;;;;9.43;7.25;;;;;;;;;;5010282;28;20189;-60
2022/08/15 01:33:42;;;;;;;8.02;6.65;;;;;;;;;;5010994;28;20479;-61
2022/08/15 01:36:09;;;;;;;7.88;7.05;;;;;;;;;;5007346;28;20030;-61
2022/08/15 01:38:41;;;;;;;10.82;7.53;;;;;;;;;;4989222;28;20125;-63
2022/08/15 01:41:48;;;;;;;7.93;6.90;;;;;;;;;;4999704;28;20042;-61
2022/08/15 01:44:26;;;;;;;9.02;6.57;;;;;;;;;;5003558;28;20066;-61
2022/08/15 01:47:19;;;;;;;8.13;6.70;;;;;;;;;;5007838;28;20056;-61
2022/08/15 01:50:01;;;;;;;9.38;6.80;;;;;;;;;;5011666;28;20087;-63
2022/08/15 01:52:36;;;;;;;7.75;6.68;;;;;;;;;;5009329;28;20045;-61
2022/08/15 01:55:03;;;;;;;8.05;7.20;;;;;;;;;;5007461;28;20261;-62
2022/08/15 01:57:29;;;;;;;8.95;6.65;;;;;;;;;;5011122;28;20033;-60
2022/08/15 01:59:56;;;;;;;7.78;6.40;;;;;;;;;;5009131;28;20026;-61
2022/08/15 02:02:24;;;;;;;11.65;7.20;;;;;;;;;;4997363;28;20041;-61
2022/08/15 02:04:49;;;;;;;9.02;6.28;;;;;;;;;;5003141;28;20026;-62
2022/08/15 02:07:18;;;;;;;7.55;6.72;;;;;;;;;;5009761;28;20471;-61
2022/08/15 02:09:49;;;;;;;8.32;6.75;;;;;;;;;;4999087;28;20042;-63
2022/08/15 02:12:17;;;;;;;7.88;6.75;;;;;;;;;;4996715;28;20066;-61
2022/08/15 02:14:42;;;;;;;8.07;6.40;;;;;;;;;;4995060;28;20034;-63
2022/08/15 02:17:09;;;;;;;8.02;6.97;;;;;;;;;;4992546;28;20394;-61
2022/08/15 02:19:36;;;;;;;8.65;6.90;;;;;;;;;;4994019;28;20435;-61
2022/08/15 02:22:05;;;;;;;9.25;6.68;;;;;;;;;;4996191;28;20061;-61
2022/08/15 02:24:31;;;;;;;9.55;6.68;;;;;;;;;;5013140;28;20033;-61
2022/08/15 02:26:56;;;;;;;7.72;6.60;;;;;;;;;;4994212;28;20039;-62
2022/08/15 02:29:25;;;;;;;8.82;7.07;;;;;;;;;;4993787;28;20042;-62
2022/08/15 02:31:55;;;;;;;9.55;6.97;;;;;;;;;;5002540;28;20042;-61
2022/08/15 02:34:21;;;;;;;10.15;6.78;;;;;;;;;;5012778;28;20042;-61
2022/08/15 02:36:48;;;;;;;7.93;7.05;;;;;;;;;;5009006;28;20036;-63
2022/08/15 02:39:14;;;;;;;8.70;7.00;;;;;;;;;;4993328;28;20061;-61
2022/08/15 02:41:43;;;;;;;9.30;7.18;;;;;;;;;;5006271;28;20069;-61
2022/08/15 02:44:11;;;;;;;8.15;6.90;;;;;;;;;;4993436;28;20293;-60
2022/08/15 02:46:38;;;;;;;10.25;7.40;;;;;;;;;;5006369;28;20034;-60
2022/08/15 02:49:11;;;;;;;10.93;7.38;;;;;;;;;;4991301;28;20033;-60
2022/08/15 02:51:41;;;;;;;8.55;6.63;;;;;;;;;;5010048;28;20033;-61
2022/08/15 02:54:09;;;;;;;9.43;7.03;;;;;;;;;;5012575;28;20622;-61
2022/08/15 02:56:35;;;;;;;8.48;6.60;;;;;;;;;;4999431;28;20046;-61
2022/08/15 02:59:02;;;;;;;9.13;7.03;;;;;;;;;;4991708;28;20034;-61
2022/08/15 03:01:29;;;;;;;10.55;7.35;;;;;;;;;;4994063;28;20045;-61
2022/08/15 03:03:56;;;;;;;8.63;6.80;;;;;;;;;;4992023;28;20522;-61
2022/08/15 03:06:25;;;;;;;9.93;6.93;;;;;;;;;;5006521;28;20034;-61
2022/08/15 03:08:51;;;;;;;8.55;6.70;;;;;;;;;;5009632;28;20038;-61
2022/08/15 03:11:17;;;;;;;8.95;6.57;;;;;;;;;;5000025;28;20042;-63
2022/08/15 03:13:43;;;;;;;8.90;7.05;;;;;;;;;;5009522;28;20083;-62
2022/08/15 03:16:11;;;;;;;8.85;7.00;;;;;;;;;;5004776;28;20049;-62
2022/08/15 03:18:41;;;;;;;9.70;7.20;;;;;;;;;;5005135;28;20049;-61
2022/08/15 03:21:11;;;;;;;10.68;6.90;;;;;;;;;;5005557;28;20037;-61
2022/08/15 03:23:37;;;;;;;9.00;6.70;;;;;;;;;;5008692;28;20034;-61
2022/08/15 03:26:04;;;;;;;8.10;6.40;;;;;;;;;;4997442;28;20501;-62
2022/08/15 03:28:32;;;;;;;10.10;6.93;;;;;;;;;;4997505;28;20157;-61
2022/08/15 03:31:02;;;;;;;10.27;6.72;;;;;;;;;;5003486;28;20030;-61
2022/08/15 03:33:31;;;;;;;9.30;6.17;;;;;;;;;;5002441;28;20045;-61
2022/08/15 03:35:57;;;;;;;9.60;6.50;;;;;;;;;;4998538;28;20030;-61
2022/08/15 03:38:22;;;;;;;8.90;6.45;;;;;;;;;;5003953;28;20037;-61
2022/08/15 03:40:49;;;;;;;7.80;6.60;;;;;;;;;;5000879;28;20029;-64
2022/08/15 03:43:20;;;;;;;8.05;6.70;;;;;;;;;;5009488;28;20029;-61
2022/08/15 03:45:59;;;;;;;9.00;6.55;;;;;;;;;;4995814;28;20032;-61
2022/08/15 03:48:30;;;;;;;8.77;6.32;;;;;;;;;;4995594;28;20566;-61
2022/08/15 03:50:57;;;;;;;8.50;6.65;;;;;;;;;;5004495;28;20065;-63
2022/08/15 03:53:24;;;;;;;7.97;6.53;;;;;;;;;;5019871;28;20034;-61
2022/08/15 03:55:50;;;;;;;8.30;6.13;;;;;;;;;;5000742;28;20029;-63
2022/08/15 03:58:15;;;;;;;10.13;6.45;;;;;;;;;;5005077;28;20535;-61
2022/08/15 04:00:47;;;;;;;10.18;6.10;;;;;;;;;;4994735;28;20033;-63
2022/08/15 04:03:18;;;;;;;12.35;6.22;;;;;;;;;;4998372;28;20031;-61
2022/08/15 04:05:51;;;;;;;8.27;6.03;;;;;;;;;;5004671;28;20100;-61
2022/08/15 04:08:19;;;;;;;10.27;5.90;;;;;;;;;;4993902;28;20061;-61
2022/08/15 04:10:46;;;;;;;6.97;5.45;;;;;;;;;;5004821;28;20702;-61
2022/08/15 04:13:12;;;;;;;8.68;5.75;;;;;;;;;;5009922;28;20022;-62
2022/08/15 04:15:39;;;;;;;10.07;5.82;;;;;;;;;;5010807;28;20482;-61
2022/08/15 04:18:09;;;;;;;10.88;5.40;;;;;;;;;;5008908;28;20038;-62
2022/08/15 04:20:35;;;;;;;10.52;5.40;;;;;;;;;;5023011;28;20148;-61
2022/08/15 04:23:01;;;;;;;9.63;5.32;;;;;;;;;;5007576;28;20034;-62
2022/08/15 04:25:33;;;;;;;9.35;5.13;;;;;;;;;;5010565;28;20044;-61
2022/08/15 04:28:03;;;;;;;7.80;5.18;;;;;;;;;;4991624;28;20038;-61
2022/08/15 04:30:34;;;;;;;10.00;5.18;;;;;;;;;;5006647;28;20037;-60
2022/08/15 04:33:09;;;;;;;7.10;4.90;;;;;;;;;;5010053;28;20079;-61
2022/08/15 04:35:36;;;;;;;7.82;5.00;;;;;;;;;;5008417;28;20045;-62
2022/08/15 04:38:02;;;;;;;9.85;4.78;;;;;;;;;;5010552;28;20045;-61
2022/08/15 04:40:30;;;;;;;7.60;4.78;;;;;;;;;;5007929;28;20026;-61
2022/08/15 04:42:58;;;;;;;7.07;4.45;;;;;;;;;;5012429;28;20034;-61
2022/08/15 04:45:25;;;;;;;8.73;4.70;;;;;;;;;;5031286;28;20509;-60
2022/08/15 04:47:51;;;;;;;11.20;4.70;;;;;;;;;;5017889;28;20062;-61
2022/08/15 04:50:17;;;;;;;8.02;4.50;;;;;;;;;;5011341;28;20065;-60
2022/08/15 04:52:51;;;;;;;9.48;4.50;;;;;;;;;;5010502;28;20471;-60
2022/08/15 04:55:19;;;;;;;8.60;4.05;;;;;;;;;;5010740;28;20081;-62
2022/08/15 04:57:44;;;;;;;7.28;4.38;;;;;;;;;;5010463;28;20065;-60
2022/08/15 05:00:12;;;;;;;7.78;4.57;;;;;;;;;;5015904;28;20080;-60
2022/08/15 05:02:38;;;;;;;9.98;4.80;;;;;;;;;;5014724;28;20121;-61
2022/08/15 05:05:05;;;;;;;7.57;4.60;;;;;;;;;;5014152;28;20113;-61
2022/08/15 05:07:31;;;;;;;9.32;4.38;;;;;;;;;;5015684;28;20038;-60
2022/08/15 05:10:00;;;;;;;7.95;4.32;;;;;;;;;;5013306;28;20034;-63
2022/08/15 05:12:28;;;;;;;6.57;4.43;;;;;;;;;;5014486;28;20554;-60
2022/08/15 05:14:53;;;;;;;9.27;4.47;;;;;;;;;;5014544;28;20034;-64
2022/08/15 05:17:18;;;;;;;11.88;4.43;;;;;;;;;;5012041;28;20433;-61
2022/08/15 05:19:44;;;;;;;10.82;4.30;;;;;;;;;;5014980;28;20030;-62
2022/08/15 05:22:09;;;;;;;11.10;4.50;;;;;;;;;;5011078;28;20539;-61
2022/08/15 05:24:35;;;;;;;8.85;4.32;;;;;;;;;;5013799;28;20172;-61
2022/08/15 05:27:01;;;;;;;9.50;4.50;;;;;;;;;;5012230;28;20113;-61
2022/08/15 05:29:26;;;;;;;9.38;5.20;;;;;;;;;;5011070;28;20133;-61
2022/08/15 05:31:52;;;;;;;9.13;4.30;;;;;;;;;;5012585;28;20463;-61
2022/08/15 05:34:19;;;;;;;9.27;4.28;;;;;;;;;;5020780;28;20025;-61
2022/08/15 05:36:45;;;;;;;18.75;4.80;;;;;;;;;;5016000;28;20509;-60
2022/08/15 05:39:30;;;;;;;9.63;4.40;;;;;;;;;;5003621;28;20026;-60
2022/08/15 05:42:36;;;;;;;9.38;4.63;;;;;;;;;;5032293;28;20462;-62
2022/08/15 05:45:14;;;;;;;8.88;4.30;;;;;;;;;;5012063;28;20037;-60
2022/08/15 05:47:57;;;;;;;8.77;4.10;;;;;;;;;;5002838;28;20034;-61
2022/08/15 05:50:33;;;;;;;6.80;4.40;;;;;;;;;;5007014;28;20038;-60
2022/08/15 05:52:58;;;;;;;11.82;4.13;;;;;;;;;;5013155;28;20057;-62
2022/08/15 05:55:38;;;;;;;10.02;4.35;;;;;;;;;;5009471;28;20380;-61
2022/08/15 05:58:37;;;;;;;10.43;4.20;;;;;;;;;;5011199;28;20037;-64
2022/08/15 06:01:20;;;;;;;7.63;4.10;;;;;;;;;;5003873;28;20508;-60
2022/08/15 06:03:56;;;;;;;12.95;4.45;;;;;;;;;;5011364;28;20048;-61
2022/08/15 06:06:24;;;;;;;9.07;3.80;;;;;;;;;;5012087;28;20041;-61
2022/08/15 06:08:53;;;;;;;9.38;4.30;;;;;;;;;;5007977;28;20117;-61
2022/08/15 06:11:27;;;;;;;9.30;3.97;;;;;;;;;;5009124;28;20046;-60
2022/08/15 06:14:34;;;;;;;10.88;4.47;;;;;;;;;;5011838;28;20038;-62
2022/08/15 06:17:23;;;;;;;9.60;3.95;;;;;;;;;;5007351;28;20054;-64
2022/08/15 06:19:51;;;;;;;16.98;4.10;;;;;;;;;;5007706;28;20088;-60
2022/08/15 06:22:29;;;;;;;15.30;4.28;;;;;;;;;;5010175;28;20026;-62
2022/08/15 06:25:22;;;;;;;8.90;4.07;;;;;;;;;;5006290;28;20038;-60
2022/08/15 06:27:57;;;;;;;7.15;3.90;;;;;;;;;;5010259;28;20030;-61
2022/08/15 06:30:33;;;;;;;6.60;3.90;;;;;;;;;;5009986;28;20030;-61
2022/08/15 06:33:19;;;;;;;13.40;3.90;;;;;;;;;;5012849;28;20030;-63
2022/08/15 06:36:04;;;;;;;8.77;4.22;;;;;;;;;;5012915;28;20092;-61
2022/08/15 06:38:57;;;;;;;9.70;4.30;;;;;;;;;;5012380;28;20072;-61
2022/08/15 06:41:41;;;;;;;8.25;3.92;;;;;;;;;;5013002;28;20063;-61
2022/08/15 06:44:07;;;;;;;9.93;3.85;;;;;;;;;;5010752;28;20537;-60
2022/08/15 06:46:33;;;;;;;10.10;4.00;;;;;;;;;;5009920;28;20034;-61
2022/08/15 06:49:05;;;;;;;9.65;3.90;;;;;;;;;;5009942;28;20577;-62
2022/08/15 06:51:32;;;;;;;7.30;4.00;;;;;;;;;;5013503;28;20030;-63
2022/08/15 06:53:59;;;;;;;13.93;4.18;;;;;;;;;;5008110;28;20088;-64
2022/08/15 06:56:33;;;;;;;7.07;4.05;;;;;;;;;;5012495;28;20096;-61
2022/08/15 06:59:02;;;;;;;9.43;4.40;;;;;;;;;;5009118;28;20042;-64
2022/08/15 07:01:48;;;;;;;7.72;4.22;;;;;;;;;;5007855;28;20343;-62
2022/08/15 07:04:38;;;;;;;11.13;4.35;;;;;;;;;;5011586;28;20026;-61
2022/08/15 07:07:20;;;;;;;10.40;4.00;;;;;;;;;;5009676;28;20378;-63
2022/08/15 07:09:55;;;;;;;7.35;4.00;;;;;;;;;;5007341;28;20080;-61
2022/08/15 07:12:40;;;;;;;8.93;3.80;;;;;;;;;;5011804;28;20041;-61
2022/08/15 07:15:22;;;;;;;8.23;3.92;;;;;;;;;;5009190;28;20037;-62
2022/08/15 07:17:53;;;;;;;11.27;4.10;;;;;;;;;;4996274;28;20387;-62
2022/08/15 07:20:18;;;;;;;10.50;3.70;;;;;;;;;;5009132;28;20378;-60
2022/08/15 07:22:44;;;;;;;12.30;4.03;;;;;;;;;;5005499;28;20033;-61
2022/08/15 07:25:13;;;;;;;10.45;4.07;;;;;;;;;;5011089;28;20046;-61
2022/08/15 07:27:40;;;;;;;7.68;3.78;;;;;;;;;;5008339;28;20038;-61
2022/08/15 07:30:20;;;;;;;8.07;3.70;;;;;;;;;;5009116;28;20068;-61
2022/08/15 07:32:56;;;;;;;10.73;3.77;;;;;;;;;;5006656;28;20034;-61
2022/08/15 07:35:25;;;;;;;12.30;3.90;;;;;;;;;;5009097;28;20073;-61
2022/08/15 07:37:59;;;;;;;8.90;3.50;;;;;;;;;;5010287;28;20076;-60
2022/08/15 07:40:34;;;;;;;10.45;3.80;;;;;;;;;;5009367;28;20096;-61
2022/08/15 07:43:05;;;;;;;10.48;3.88;;;;;;;;;;5010411;28;20084;-61
2022/08/15 07:45:39;;;;;;;11.63;3.80;;;;;;;;;;5010088;28;20044;-61
2022/08/15 07:48:28;;;;;;;13.32;3.58;;;;;;;;;;5008896;28;20038;-64
2022/08/15 07:51:23;;;;;;;7.28;3.40;;;;;;;;;;5025980;28;20026;-61
2022/08/15 07:54:02;;;;;;;16.17;3.70;;;;;;;;;;5004138;28;20447;-62
2022/08/15 07:56:30;;;;;;;13.02;3.58;;;;;;;;;;4992366;28;20043;-61
2022/08/15 07:59:20;;;;;;;9.80;3.45;;;;;;;;;;5008698;28;20033;-62
2022/08/15 08:01:47;;;;;;;13.45;3.40;;;;;;;;;;4999186;28;20037;-62
2022/08/15 08:04:18;;;;;;;10.13;3.60;;;;;;;;;;5010444;28;20065;-62
2022/08/15 08:06:46;;;;;;;8.98;3.42;;;;;;;;;;5010392;28;20049;-61
2022/08/15 08:09:42;;;;;;;14.52;3.55;;;;;;;;;;5010272;28;20028;-62
2022/08/15 08:12:23;;;;;;;10.13;3.58;;;;;;;;;;5009844;28;20094;-62
2022/08/15 08:15:19;;;;;;;9.30;3.47;;;;;;;;;;5008444;28;20055;-61
2022/08/15 08:17:56;;;;;;;9.23;3.40;;;;;;;;;;5001962;28;20104;-61
2022/08/15 08:21:01;;;;;;;9.32;3.33;;;;;;;;;;5004461;28;20030;-63
2022/08/15 08:23:34;;;;;;;14.38;3.25;;;;;;;;;;5002860;28;20053;-62
2022/08/15 08:26:27;;;;;;;7.32;3.42;;;;;;;;;;5011830;28;20034;-64
2022/08/15 08:29:08;;;;;;;6.25;3.60;;;;;;;;;;5009029;28;20464;-61
2022/08/15 08:31:43;;;;;;;6.13;3.40;;;;;;;;;;5010519;28;20037;-61
2022/08/15 08:34:28;;;;;;;9.82;3.72;;;;;;;;;;5014265;28;20038;-61
2022/08/15 08:37:19;;;;;;;13.65;3.53;;;;;;;;;;5011143;28;20416;-62
2022/08/15 08:39:44;;;;;;;8.32;3.63;;;;;;;;;;5015107;28;20101;-61
2022/08/15 08:42:31;;;;;;;9.52;3.40;;;;;;;;;;5010868;28;20429;-61
2022/08/15 08:45:12;;;;;;;7.38;3.40;;;;;;;;;;5011893;28;20026;-61
2022/08/15 08:47:58;;;;;;;8.50;3.58;;;;;;;;;;5006396;28;20431;-61
2022/08/15 08:50:39;;;;;;;8.88;3.42;;;;;;;;;;5022319;28;20191;-61
2022/08/15 08:53:16;;;;;;;6.82;3.83;;;;;;;;;;5010218;28;20038;-63
2022/08/15 08:55:52;;;;;;;9.90;3.92;;;;;;;;;;5013755;28;20025;-62
2022/08/15 08:58:29;;;;;;;9.48;3.40;;;;;;;;;;5013112;28;20042;-61
2022/08/15 09:00:55;;;;;;;8.52;3.55;;;;;;;;;;5012178;28;20029;-61
2022/08/15 09:03:34;;;;;;;6.60;3.20;;;;;;;;;;5012466;28;20112;-61
2022/08/15 09:06:01;;;;;;;11.18;3.15;;;;;;;;;;4995677;28;20031;-61
2022/08/15 09:08:32;;;;;;;6.72;3.30;;;;;;;;;;5011190;28;20025;-61
2022/08/15 09:11:04;;;;;;;7.95;3.10;;;;;;;;;;5013524;28;20092;-60
2022/08/15 09:13:33;;;;;;;7.53;3.47;;;;;;;;;;5008845;28;20054;-62
2022/08/15 09:16:06;;;;;;;9.95;3.20;;;;;;;;;;5009402;28;20050;-61
2022/08/15 09:18:34;;;;;;;9.10;3.33;;;;;;;;;;5005144;28;20471;-61
2022/08/15 09:21:00;;;;;;;7.38;3.50;;;;;;;;;;5007188;28;20037;-62
2022/08/15 09:23:42;;;;;;;7.43;3.53;;;;;;;;;;5010559;28;20037;-61
2022/08/15 09:26:34;;;;;;;7.32;3.42;;;;;;;;;;5012659;28;20023;-64
2022/08/15 09:29:14;;;;;;;8.20;3.33;;;;;;;;;;4990437;28;20038;-62
2022/08/15 09:31:44;;;;;;;5.75;3.50;;;;;;;;;;5012464;28;20034;-62
2022/08/15 09:34:37;;;;;;;9.63;3.40;;;;;;;;;;5014143;28;20485;-65
2022/08/15 09:37:27;;;;;;;10.20;3.47;;;;;;;;;;5006061;28;20113;-62
2022/08/15 09:40:17;;;;;;;9.45;3.70;;;;;;;;;;5012647;28;20025;-61
2022/08/15 09:42:59;;;;;;;10.07;3.65;;;;;;;;;;5034393;28;20029;-61
2022/08/15 09:45:32;;;;;;;12.13;3.60;;;;;;;;;;5006656;28;20042;-61
2022/08/15 09:48:13;;;;;;;6.13;3.50;;;;;;;;;;5011748;28;20056;-60
2022/08/15 09:50:53;;;;;;;8.10;3.58;;;;;;;;;;5010838;28;20034;-61
2022/08/15 09:53:37;;;;;;;9.38;3.90;;;;;;;;;;5010133;28;20034;-61
2022/08/15 09:56:05;;;;;;;8.18;3.83;;;;;;;;;;5012316;28;20033;-62
2022/08/15 09:58:36;;;;;;;9.15;3.78;;;;;;;;;;5012600;28;20405;-62
2022/08/15 10:01:07;;;;;;;6.28;3.75;;;;;;;;;;5013358;28;20030;-62
2022/08/15 10:03:58;;;;;;;6.78;3.60;;;;;;;;;;5010585;28;20040;-61
2022/08/15 10:06:31;;;;;;;;;;;;;;;;;;5009574;28;20049;-59
2022/08/15 10:09:01;;;;;;;10.82;3.85;;;;;;;;;;5012949;28;20408;-61
2022/08/15 10:11:31;;;;;;;5.55;3.75;;;;;;;;;;5003836;28;20049;-62
2022/08/15 10:14:14;;;;;;;7.43;3.97;;;;;;;;;;5011618;28;20124;-62
2022/08/15 10:16:39;;;;;;;7.50;3.88;;;;;;;;;;5009957;28;20050;-62
2022/08/15 10:19:10;;;;;;;11.93;4.22;;;;;;;;;;5005029;28;20505;-61
2022/08/15 10:21:44;;;;;;;13.73;4.05;;;;;;;;;;5026401;28;20029;-62
2022/08/15 10:24:42;;;;;;;11.05;4.18;;;;;;;;;;5000300;28;20666;-64
2022/08/15 10:27:15;;;;;;;9.55;4.47;;;;;;;;;;4985647;28;20046;-62
2022/08/15 10:29:50;;;;;;;10.00;4.47;;;;;;;;;;5013486;28;20026;-62
2022/08/15 10:32:30;;;;;;;11.98;4.47;;;;;;;;;;5011153;28;20125;-62
2022/08/15 10:35:02;;;;;;;9.98;4.82;;;;;;;;;;5012021;28;20033;-65
2022/08/15 10:37:51;;;;;;;14.13;4.80;;;;;;;;;;5009814;28;20037;-63
2022/08/15 10:40:36;;;;;;;14.20;4.63;;;;;;;;;;5011154;28;20088;-63
2022/08/15 10:43:20;;;;;;;10.52;4.55;;;;;;;;;;5011302;28;20056;-63
2022/08/15 10:45:46;;;;;;;8.48;4.28;;;;;;;;;;5011208;28;20053;-63
2022/08/15 10:48:26;;;;;;;11.07;4.18;;;;;;;;;;5009965;28;20041;-65
2022/08/15 10:51:01;;;;;;;8.60;4.40;;;;;;;;;;5008527;28;20089;-62
2022/08/15 10:53:40;;;;;;;14.63;4.18;;;;;;;;;;5010795;28;20062;-63
2022/08/15 10:56:14;;;;;;;7.85;4.25;;;;;;;;;;5010286;28;20048;-64
2022/08/15 10:58:40;;;;;;;14.73;4.45;;;;;;;;;;5009433;28;20471;-64
2022/08/15 11:01:20;;;;;;;11.38;4.50;;;;;;;;;;5010070;28;20041;-64
2022/08/15 11:04:01;;;;;;;11.85;4.30;;;;;;;;;;5013436;28;20088;-63
2022/08/15 11:06:27;;;;;;;8.55;4.50;;;;;;;;;;5008899;28;20045;-63
2022/08/15 11:08:58;;;;;;;12.13;4.38;;;;;;;;;;5013166;28;20149;-63
2022/08/15 11:11:26;;;;;;;10.77;4.50;;;;;;;;;;5011288;28;20057;-62
2022/08/15 11:13:56;;;;;;;12.43;4.50;;;;;;;;;;5010162;28;20075;-63
2022/08/15 11:16:35;;;;;;;7.60;4.53;;;;;;;;;;5010964;28;20045;-63
2022/08/15 11:19:13;;;;;;;10.60;4.43;;;;;;;;;;5008850;28;20510;-60
2022/08/15 11:21:47;;;;;;;9.57;4.68;;;;;;;;;;5009722;28;20636;-62
2022/08/15 11:24:12;;;;;;;10.77;4.53;;;;;;;;;;5010961;28;20378;-65
2022/08/15 11:26:41;;;;;;;10.98;4.32;;;;;;;;;;5011825;28;20060;-62
2022/08/15 11:29:15;;;;;;;12.68;4.68;;;;;;;;;;5012138;28;20502;-61
2022/08/15 11:31:53;;;;;;;11.00;4.88;;;;;;;;;;5009501;28;20105;-61
2022/08/15 11:34:33;;;;;;;9.73;4.50;;;;;;;;;;5012074;28;20057;-62
2022/08/15 11:37:08;;;;;;;8.82;4.40;;;;;;;;;;5011694;28;20112;-63
2022/08/15 11:39:38;;;;;;;9.05;4.30;;;;;;;;;;5010572;28;20118;-61
2022/08/15 11:42:06;;;;;;;9.80;4.25;;;;;;;;;;5006399;28;20026;-61
2022/08/15 11:44:50;;;;;;;14.55;5.38;;;;;;;;;;4991518;28;20398;-62
2022/08/15 11:47:17;;;;;;;9.05;4.18;;;;;;;;;;5002158;28;20150;-64
2022/08/15 11:49:47;;;;;;;8.63;4.30;;;;;;;;;;5007660;28;20069;-61
2022/08/15 11:52:13;;;;;;;8.68;4.50;;;;;;;;;;5002959;28;20050;-61
2022/08/15 11:54:38;;;;;;;8.90;4.30;;;;;;;;;;5007050;28;20042;-60
2022/08/15 11:57:06;;;;;;;9.50;4.18;;;;;;;;;;5010499;28;20057;-62
2022/08/15 11:59:39;;;;;;;9.25;4.03;;;;;;;;;;5011133;28;20041;-62
2022/08/15 12:02:19;;;;;;;12.65;4.28;;;;;;;;;;5009768;28;20395;-64
2022/08/15 12:04:48;;;;;;;8.15;4.45;;;;;;;;;;5011126;28;20072;-63
2022/08/15 12:07:20;;;;;;;9.63;4.53;;;;;;;;;;5010309;28;20141;-62
2022/08/15 12:09:57;;;;;;;9.25;4.57;;;;;;;;;;5011062;28;20034;-61
2022/08/15 12:12:36;;;;;;;8.55;4.35;;;;;;;;;;5009628;28;20044;-61
2022/08/15 12:15:10;;;;;;;12.38;4.10;;;;;;;;;;5008104;28;20029;-61
2022/08/15 12:17:36;;;;;;;10.75;4.50;;;;;;;;;;5003831;28;20040;-62
2022/08/15 12:20:04;;;;;;;9.80;4.43;;;;;;;;;;4995461;28;20046;-63
2022/08/15 12:22:39;;;;;;;7.20;4.13;;;;;;;;;;5007999;28;20390;-63
2022/08/15 12:25:07;;;;;;;11.27;4.28;;;;;;;;;;4997715;28;20040;-62
2022/08/15 12:27:37;;;;;;;9.15;4.68;;;;;;;;;;5010269;28;20061;-62
2022/08/15 12:30:09;;;;;;;8.35;4.30;;;;;;;;;;5009990;28;20037;-62
2022/08/15 12:32:35;;;;;;;9.88;4.60;;;;;;;;;;5009577;28;20531;-62
2022/08/15 12:35:03;;;;;;;7.90;4.90;;;;;;;;;;5006972;28;20382;-64
2022/08/15 12:37:28;;;;;;;9.65;4.70;;;;;;;;;;5007808;28;20091;-63
2022/08/15 12:39:57;;;;;;;10.02;4.60;;;;;;;;;;5011880;28;20419;-61
2022/08/15 12:42:24;;;;;;;9.70;4.85;;;;;;;;;;5007267;28;20042;-62
2022/08/15 12:44:53;;;;;;;10.02;4.50;;;;;;;;;;5005556;28;20042;-61
2022/08/15 12:47:18;;;;;;;7.95;4.68;;;;;;;;;;5004795;28;20129;-65
2022/08/15 12:49:44;;;;;;;8.35;4.75;;;;;;;;;;5008083;28;20112;-64
2022/08/15 12:52:10;;;;;;;8.73;4.32;;;;;;;;;;5007595;28;20050;-62
2022/08/15 12:54:36;;;;;;;10.75;4.57;;;;;;;;;;5009838;28;20037;-63
2022/08/15 12:57:02;;;;;;;9.63;5.10;;;;;;;;;;4995378;28;20053;-62
2022/08/15 12:59:27;;;;;;;10.20;5.10;;;;;;;;;;5010934;28;20363;-62
2022/08/15 13:01:53;;;;;;;10.68;4.60;;;;;;;;;;5008974;28;20056;-62
2022/08/15 13:04:18;;;;;;;8.23;4.47;;;;;;;;;;5011096;28;20026;-64
2022/08/15 13:06:48;;;;;;;11.02;4.85;;;;;;;;;;5007138;28;20033;-62
2022/08/15 13:09:15;;;;;;;10.82;4.22;;;;;;;;;;5010036;28;20059;-63
2022/08/15 13:11:42;;;;;;;7.43;4.40;;;;;;;;;;5009046;28;20103;-61
2022/08/15 13:14:09;;;;;;;6.70;4.57;;;;;;;;;;4996934;28;20037;-61
2022/08/15 13:16:35;;;;;;;7.25;4.88;;;;;;;;;;5006622;28;20046;-61
2022/08/15 13:19:02;;;;;;;9.85;4.60;;;;;;;;;;5010543;28;20109;-61
2022/08/15 13:24:12;;;;;;;9.23;4.30;;;;;;;;;;5010617;28;20121;-61
2022/08/15 13:26:42;;;;;;;7.93;4.63;;;;;;;;;;5013559;28;20061;-62
2022/08/15 13:29:08;;;;;;;8.55;4.70;;;;;;;;;;5013555;28;20410;-61
2022/08/15 13:31:34;;;;;;;7.07;4.65;;;;;;;;;;5013432;28;20038;-62
2022/08/15 13:34:00;;;;;;;6.60;4.80;;;;;;;;;;5012869;28;20040;-62
2022/08/15 13:36:28;;;;;;;9.00;4.93;;;;;;;;;;5010366;28;20498;-62
2022/08/15 13:38:55;;;;;;;11.40;4.85;;;;;;;;;;5013872;28;20037;-60
2022/08/15 13:41:21;;;;;;;8.95;5.10;;;;;;;;;;5003822;28;20495;-62
2022/08/15 13:43:49;;;;;;;7.10;4.57;;;;;;;;;;5034271;28;20501;-61
2022/08/15 13:46:25;;;;;;;8.13;4.47;;;;;;;;;;5015026;28;20038;-63
2022/08/15 13:48:51;;;;;;;8.23;4.55;;;;;;;;;;5014712;28;20037;-61
2022/08/15 13:51:25;;;;;;;11.93;4.90;;;;;;;;;;5011298;28;20446;-62
2022/08/15 13:53:52;;;;;;;7.80;4.15;;;;;;;;;;5007477;28;20042;-61
2022/08/15 13:56:18;;;;;;;8.65;5.00;;;;;;;;;;5012188;28;20120;-61
2022/08/15 13:58:44;;;;;;;10.18;5.10;;;;;;;;;;5012605;28;20147;-60
2022/08/15 14:01:17;;;;;;;10.90;4.88;;;;;;;;;;5013099;28;20084;-61
2022/08/15 14:03:43;;;;;;;11.38;5.00;;;;;;;;;;5010850;28;20037;-61
2022/08/15 14:06:10;;;;;;;7.40;4.45;;;;;;;;;;5013648;28;20034;-61
2022/08/15 14:08:39;;;;;;;10.73;4.85;;;;;;;;;;5012530;28;20068;-61
2022/08/15 14:11:05;;;;;;;9.40;5.10;;;;;;;;;;5011188;28;20034;-61
2022/08/15 14:13:30;;;;;;;10.82;5.38;;;;;;;;;;5009832;28;20472;-61
2022/08/15 14:15:56;;;;;;;10.32;4.75;;;;;;;;;;5012811;28;20475;-61
2022/08/15 14:18:23;;;;;;;8.70;4.70;;;;;;;;;;5012333;28;20489;-61
2022/08/15 14:20:49;;;;;;;10.10;4.70;;;;;;;;;;5010990;28;20036;-62
2022/08/15 14:23:15;;;;;;;8.40;4.78;;;;;;;;;;5009602;28;20030;-61
2022/08/15 14:25:42;;;;;;;10.27;5.22;;;;;;;;;;5010983;28;20030;-61
2022/08/15 14:28:08;;;;;;;12.35;5.10;;;;;;;;;;5013099;28;20049;-61
2022/08/15 14:30:34;;;;;;;11.65;5.03;;;;;;;;;;5011872;28;20429;-62
2022/08/15 14:33:00;;;;;;;8.38;5.03;;;;;;;;;;5010645;28;20536;-62
2022/08/15 14:35:27;;;;;;;9.68;4.95;;;;;;;;;;5010334;28;20041;-65
2022/08/15 14:37:54;;;;;;;8.80;4.72;;;;;;;;;;5010849;28;20092;-62
2022/08/15 14:40:26;;;;;;;10.38;5.25;;;;;;;;;;5011701;28;20029;-62
2022/08/15 14:42:55;;;;;;;13.35;4.93;;;;;;;;;;5012853;28;20084;-60
2022/08/15 14:45:20;;;;;;;11.00;5.47;;;;;;;;;;5010728;28;20033;-62
2022/08/15 14:47:49;;;;;;;7.68;4.72;;;;;;;;;;5007341;28;20048;-61
2022/08/15 14:50:18;;;;;;;7.72;4.88;;;;;;;;;;5005207;28;20040;-61
2022/08/15 14:52:44;;;;;;;12.43;5.35;;;;;;;;;;5010031;28;20030;-61
2022/08/15 14:55:10;;;;;;;8.65;5.25;;;;;;;;;;5011678;28;20092;-61
2022/08/15 14:57:36;;;;;;;7.35;4.65;;;;;;;;;;5009408;28;20042;-61
2022/08/15 15:00:07;;;;;;;10.30;4.82;;;;;;;;;;5010728;28;20029;-61
2022/08/15 15:02:34;;;;;;;10.93;4.70;;;;;;;;;;5009288;28;20096;-63
2022/08/15 15:05:02;;;;;;;7.97;5.00;;;;;;;;;;5003638;28;20033;-61
2022/08/15 15:07:29;;;;;;;7.47;4.85;;;;;;;;;;5006742;28;20475;-62
2022/08/15 15:09:55;;;;;;;9.93;4.75;;;;;;;;;;5005171;28;20482;-60
2022/08/15 15:12:22;;;;;;;8.30;4.57;;;;;;;;;;5005927;28;20034;-61
2022/08/15 15:14:48;;;;;;;7.25;5.00;;;;;;;;;;4996348;28;20706;-60